createdAt,value
2019-05-26T00:01:53.704Z,13.87
2019-05-26T00:04:22.743Z,11.63
2019-05-26T00:06:51.841Z,15.93
2019-05-26T00:09:20.766Z,10.10
2019-05-26T00:11:49.779Z,10.70
2019-05-26T00:14:18.793Z,9.03
2019-05-26T00:16:47.768Z,9.07
2019-05-26T00:19:16.680Z,8.73
2019-05-26T00:21:45.609Z,9.23
2019-05-26T00:24:14.578Z,10.23
2019-05-26T00:26:43.742Z,11.53
2019-05-26T00:29:12.718Z,12.03
2019-05-26T00:31:41.649Z,10.10
2019-05-26T00:34:10.601Z,12.10
2019-05-26T00:36:39.595Z,10.87
2019-05-26T00:39:08.643Z,12.20
2019-05-26T00:41:37.938Z,9.07
2019-05-26T00:44:06.952Z,9.13
2019-05-26T00:46:35.927Z,12.03
2019-05-26T00:49:05.032Z,8.27
2019-05-26T00:51:34.219Z,11.90
2019-05-26T00:54:03.264Z,10.33
2019-05-26T00:56:32.438Z,10.37
2019-05-26T00:59:01.705Z,12.03
2019-05-26T01:01:30.741Z,10.73
2019-05-26T01:03:59.743Z,10.97
2019-05-26T01:06:28.664Z,8.27
2019-05-26T01:08:57.909Z,10.20
2019-05-26T01:11:26.797Z,11.40
2019-05-26T01:13:56.100Z,9.87
2019-05-26T01:16:25.044Z,8.70
2019-05-26T01:18:53.927Z,8.27
2019-05-26T01:21:23.189Z,13.03
2019-05-26T01:23:52.308Z,10.63
2019-05-26T01:26:21.403Z,7.97
2019-05-26T01:28:50.425Z,11.90
2019-05-26T01:31:19.459Z,8.77
2019-05-26T01:33:48.465Z,10.90
2019-05-26T01:36:17.690Z,7.07
2019-05-26T01:38:47.347Z,9.60
2019-05-26T01:41:16.257Z,9.97
2019-05-26T01:43:55.394Z,11.63
2019-05-26T01:46:24.370Z,10.30
2019-05-26T01:48:53.305Z,10.03
2019-05-26T01:51:22.323Z,7.83
2019-05-26T01:53:51.283Z,10.67
2019-05-26T01:56:20.116Z,9.17
2019-05-26T01:58:49.208Z,8.90
2019-05-26T02:01:18.181Z,9.57
2019-05-26T02:03:47.148Z,11.30
2019-05-26T02:06:16.259Z,8.73
2019-05-26T02:08:45.153Z,11.03
2019-05-26T02:11:14.062Z,9.57
2019-05-26T02:13:43.028Z,10.27
2019-05-26T02:16:12.014Z,9.37
2019-05-26T02:18:41.126Z,8.83
2019-05-26T02:21:10.054Z,8.00
2019-05-26T02:23:39.091Z,8.83
2019-05-26T02:26:08.006Z,11.37
2019-05-26T02:28:37.033Z,8.27
2019-05-26T02:31:06.007Z,9.30
2019-05-26T02:33:34.959Z,8.30
2019-05-26T02:36:04.035Z,8.63
2019-05-26T02:38:32.991Z,7.63
2019-05-26T02:41:02.031Z,8.93
2019-05-26T02:43:30.983Z,10.80
2019-05-26T02:45:59.894Z,10.67
2019-05-26T02:48:28.942Z,10.97
2019-05-26T02:50:57.738Z,10.70
2019-05-26T02:53:26.944Z,11.07
2019-05-26T02:55:55.932Z,8.93
2019-05-26T02:58:25.002Z,8.93
2019-05-26T03:00:54.250Z,10.10
2019-05-26T03:03:23.477Z,8.40
2019-05-26T03:05:53.813Z,8.83
2019-05-26T03:08:23.180Z,13.13
2019-05-26T03:10:54.639Z,10.70
2019-05-26T03:13:23.558Z,9.77
2019-05-26T03:15:54.204Z,8.77
2019-05-26T03:18:29.179Z,10.53
2019-05-26T03:20:59.794Z,11.70
2019-05-26T03:23:31.970Z,17.63
2019-05-26T03:26:00.961Z,10.97
2019-05-26T03:28:30.221Z,8.53
2019-05-26T03:30:59.167Z,8.10
2019-05-26T03:33:28.326Z,9.13
2019-05-26T03:35:57.258Z,10.43
2019-05-26T03:38:26.244Z,8.63
2019-05-26T03:40:55.148Z,12.53
2019-05-26T03:43:24.179Z,9.67
2019-05-26T03:46:18.606Z,9.70
2019-05-26T03:48:47.945Z,9.83
2019-05-26T03:51:16.879Z,9.60
2019-05-26T03:53:45.947Z,8.80
2019-05-26T03:56:14.963Z,12.40
2019-05-26T03:58:43.978Z,9.77
2019-05-26T04:01:12.972Z,11.93
2019-05-26T04:03:42.184Z,10.77
2019-05-26T04:06:11.198Z,12.17
2019-05-26T04:08:40.269Z,10.50
2019-05-26T04:11:09.411Z,11.60
2019-05-26T04:13:38.472Z,11.27
2019-05-26T04:16:07.455Z,10.73
2019-05-26T04:18:36.485Z,9.90
2019-05-26T04:21:05.458Z,11.93
2019-05-26T04:23:34.299Z,9.03
2019-05-26T04:26:03.323Z,10.17
2019-05-26T04:28:32.352Z,10.83
2019-05-26T04:31:01.163Z,12.07
2019-05-26T04:33:30.228Z,10.97
2019-05-26T04:35:59.279Z,12.33
2019-05-26T04:38:28.160Z,9.77
2019-05-26T04:40:57.339Z,12.20
2019-05-26T04:43:26.288Z,15.37
2019-05-26T04:45:55.239Z,13.97
2019-05-26T04:48:24.248Z,11.13
2019-05-26T04:50:53.190Z,11.77
2019-05-26T04:53:22.230Z,13.63
2019-05-26T04:55:51.498Z,13.77
2019-05-26T04:58:20.417Z,13.00
2019-05-26T05:00:49.360Z,15.00
2019-05-26T05:03:18.351Z,12.47
2019-05-26T05:05:47.446Z,12.77
2019-05-26T05:08:16.560Z,13.03
2019-05-26T05:10:45.383Z,12.87
2019-05-26T05:13:14.262Z,14.17
2019-05-26T05:15:43.314Z,14.37
2019-05-26T05:18:12.305Z,13.80
2019-05-26T05:20:41.439Z,15.27
2019-05-26T05:23:10.472Z,17.10
2019-05-26T05:25:39.476Z,14.63
2019-05-26T05:28:08.381Z,16.43
2019-05-26T05:30:37.261Z,17.97
2019-05-26T05:33:06.204Z,18.97
2019-05-26T05:35:35.027Z,16.60
2019-05-26T05:38:04.030Z,15.57
2019-05-26T05:40:33.799Z,15.37
2019-05-26T05:43:02.711Z,17.80
2019-05-26T05:45:31.646Z,15.93
2019-05-26T05:48:00.607Z,16.77
2019-05-26T05:50:29.435Z,15.93
2019-05-26T05:52:58.246Z,17.80
2019-05-26T05:55:27.256Z,17.50
2019-05-26T05:57:56.189Z,18.63
2019-05-26T06:00:25.915Z,16.97
2019-05-26T06:02:54.994Z,15.00
2019-05-26T06:05:24.099Z,16.33
2019-05-26T06:07:53.119Z,18.53
2019-05-26T06:10:22.171Z,17.00
2019-05-26T06:12:51.074Z,15.33
2019-05-26T06:15:20.117Z,15.90
2019-05-26T06:17:49.077Z,15.03
2019-05-26T06:20:18.435Z,15.60
2019-05-26T06:22:47.418Z,15.97
2019-05-26T06:25:17.131Z,14.30
2019-05-26T06:27:46.399Z,13.93
2019-05-26T06:30:15.804Z,16.17
2019-05-26T06:32:45.184Z,14.23
2019-05-26T06:35:14.423Z,15.97
2019-05-26T06:37:43.516Z,13.90
2019-05-26T06:40:12.687Z,12.33
2019-05-26T06:42:41.787Z,12.43
2019-05-26T06:45:11.551Z,13.03
2019-05-26T06:47:40.495Z,12.53
2019-05-26T06:50:09.595Z,13.70
2019-05-26T06:52:38.671Z,12.53
2019-05-26T06:55:07.895Z,11.55
2019-05-26T06:57:36.895Z,11.88
2019-05-26T07:00:06.073Z,11.43
2019-05-26T07:02:35.026Z,11.05
2019-05-26T07:05:04.668Z,11.43
2019-05-26T07:07:33.635Z,11.05
2019-05-26T07:10:02.689Z,9.80
2019-05-26T07:12:31.571Z,10.78
2019-05-26T07:15:00.482Z,10.70
2019-05-26T07:17:29.483Z,9.75
2019-05-26T07:19:58.353Z,11.22
2019-05-26T07:22:27.378Z,9.58
2019-05-26T07:24:56.243Z,12.75
2019-05-26T07:27:25.157Z,8.85
2019-05-26T07:29:54.068Z,8.33
2019-05-26T07:32:23.129Z,8.85
2019-05-26T07:34:52.420Z,8.48
2019-05-26T07:37:21.213Z,8.83
2019-05-26T07:39:50.290Z,8.78
2019-05-26T07:42:19.286Z,8.90
2019-05-26T07:44:48.258Z,8.80
2019-05-26T07:47:17.063Z,8.40
2019-05-26T07:49:46.147Z,7.22
2019-05-26T07:52:15.053Z,7.50
2019-05-26T07:54:43.875Z,8.43
2019-05-26T07:57:12.783Z,6.85
2019-05-26T07:59:41.876Z,7.05
2019-05-26T08:02:10.787Z,6.72
2019-05-26T08:04:39.671Z,6.95
2019-05-26T08:07:08.625Z,6.37
2019-05-26T08:09:37.794Z,7.47
2019-05-26T08:12:06.860Z,9.00
2019-05-26T08:14:35.856Z,7.62
2019-05-26T08:17:04.905Z,6.33
2019-05-26T08:19:33.810Z,7.12
2019-05-26T08:22:02.735Z,6.37
2019-05-26T08:24:31.665Z,7.28
2019-05-26T08:27:00.596Z,5.58
2019-05-26T08:29:29.678Z,6.45
2019-05-26T08:31:58.606Z,6.87
2019-05-26T08:34:27.651Z,5.65
2019-05-26T08:36:56.534Z,3.80
2019-05-26T08:39:25.495Z,3.92
2019-05-26T08:41:54.586Z,3.17
2019-05-26T08:44:23.509Z,4.28
2019-05-26T08:46:52.373Z,4.92
2019-05-26T08:49:21.298Z,3.22
2019-05-26T08:51:50.121Z,3.20
2019-05-26T08:54:19.212Z,3.25
2019-05-26T08:56:48.022Z,3.30
2019-05-26T08:59:16.941Z,3.35
2019-05-26T09:01:45.859Z,3.60
2019-05-26T09:04:14.825Z,3.00
2019-05-26T09:06:43.730Z,3.17
2019-05-26T09:09:12.625Z,2.80
2019-05-26T09:11:41.422Z,2.60
2019-05-26T09:14:10.414Z,3.60
2019-05-26T09:16:39.420Z,3.15
2019-05-26T09:19:08.231Z,6.15
2019-05-26T09:21:37.134Z,3.37
2019-05-26T09:24:06.107Z,4.70
2019-05-26T09:26:35.150Z,3.27
2019-05-26T09:29:04.141Z,2.62
2019-05-26T09:31:34.262Z,2.77
2019-05-26T09:34:03.562Z,2.62
2019-05-26T09:36:35.274Z,2.50
2019-05-26T09:39:06.161Z,3.98
2019-05-26T09:41:35.079Z,2.10
2019-05-26T09:44:04.110Z,2.25
2019-05-26T09:46:33.040Z,2.70
2019-05-26T09:49:02.154Z,3.02
2019-05-26T09:51:31.066Z,3.90
2019-05-26T09:54:01.983Z,2.20
2019-05-26T09:56:30.685Z,1.72
2019-05-26T09:58:59.563Z,1.60
2019-05-26T10:01:28.549Z,1.75
2019-05-26T10:03:57.583Z,2.12
2019-05-26T10:06:26.651Z,1.95
2019-05-26T10:08:55.897Z,3.85
2019-05-26T10:11:24.939Z,1.45
2019-05-26T10:13:54.039Z,2.60
2019-05-26T10:16:23.318Z,1.50
2019-05-26T10:18:52.194Z,1.60
2019-05-26T10:21:21.550Z,1.52
2019-05-26T10:23:53.020Z,2.17
2019-05-26T10:26:23.256Z,2.10
2019-05-26T10:28:52.218Z,2.80
2019-05-26T10:31:21.054Z,2.45
2019-05-26T10:33:49.898Z,1.90
2019-05-26T10:36:18.856Z,1.37
2019-05-26T10:38:47.902Z,1.20
2019-05-26T10:41:16.898Z,1.45
2019-05-26T10:43:47.555Z,2.05
2019-05-26T10:46:16.441Z,1.70
2019-05-26T10:48:45.331Z,1.90
2019-05-26T10:51:14.630Z,1.82
2019-05-26T10:53:43.619Z,1.32
2019-05-26T10:56:12.945Z,1.10
2019-05-26T10:58:41.981Z,2.33
2019-05-26T11:01:11.027Z,5.50
2019-05-26T11:03:45.014Z,2.45
2019-05-26T11:06:14.417Z,2.65
2019-05-26T11:08:43.425Z,3.62
2019-05-26T11:11:12.455Z,1.60
2019-05-26T11:13:41.601Z,1.90
2019-05-26T11:16:10.691Z,1.32
2019-05-26T11:18:39.665Z,1.60
2019-05-26T11:21:08.583Z,1.50
2019-05-26T11:23:37.594Z,2.92
2019-05-26T11:26:06.593Z,1.57
2019-05-26T11:28:35.544Z,1.45
2019-05-26T11:31:04.526Z,1.20
2019-05-26T11:33:33.597Z,2.58
2019-05-26T11:36:02.515Z,1.80
2019-05-26T11:38:33.688Z,1.65
2019-05-26T11:41:02.245Z,1.72
2019-05-26T11:43:31.176Z,2.65
2019-05-26T11:46:00.185Z,1.60
2019-05-26T11:48:29.221Z,1.67
2019-05-26T11:50:58.441Z,1.65
2019-05-26T11:53:27.535Z,1.70
2019-05-26T11:55:56.506Z,3.35
2019-05-26T11:58:25.532Z,1.80
2019-05-26T12:00:54.443Z,2.77
2019-05-26T12:03:23.277Z,4.22
2019-05-26T12:05:52.523Z,5.55
2019-05-26T12:08:21.519Z,1.92
2019-05-26T12:10:50.496Z,1.90
2019-05-26T12:13:19.563Z,1.95
2019-05-26T12:15:48.620Z,2.65
2019-05-26T12:18:17.560Z,1.87
2019-05-26T12:20:46.500Z,2.47
2019-05-26T12:23:15.518Z,1.72
2019-05-26T12:25:44.580Z,3.25
2019-05-26T12:28:13.599Z,3.02
2019-05-26T12:30:42.512Z,4.25
2019-05-26T12:33:11.651Z,3.15
2019-05-26T12:35:44.322Z,2.17
2019-05-26T12:38:13.650Z,4.12
2019-05-26T12:40:43.038Z,2.17
2019-05-26T12:43:12.245Z,2.65
2019-05-26T12:45:41.367Z,3.15
2019-05-26T12:48:10.363Z,4.70
2019-05-26T12:50:39.312Z,2.85
2019-05-26T12:53:08.393Z,3.50
2019-05-26T12:55:37.406Z,1.42
2019-05-26T12:58:06.439Z,2.67
2019-05-26T13:00:48.260Z,1.92
2019-05-26T13:03:06.265Z,2.50
2019-05-26T13:05:35.374Z,4.30
2019-05-26T13:08:04.563Z,2.10
2019-05-26T13:10:33.646Z,2.80
2019-05-26T13:13:03.035Z,1.70
2019-05-26T13:15:33.039Z,2.20
2019-05-26T13:18:02.009Z,2.92
2019-05-26T13:20:30.978Z,1.67
2019-05-26T13:23:00.012Z,2.15
2019-05-26T13:25:28.937Z,1.40
2019-05-26T13:27:57.945Z,2.12
2019-05-26T13:30:28.574Z,4.15
2019-05-26T13:32:57.425Z,2.10
2019-05-26T13:35:26.443Z,1.50
2019-05-26T13:37:55.710Z,1.37
2019-05-26T13:40:24.805Z,3.35
2019-05-26T13:42:54.008Z,7.58
2019-05-26T13:45:23.558Z,2.42
2019-05-26T13:47:53.334Z,1.80
2019-05-26T13:50:22.754Z,2.00
2019-05-26T13:52:51.708Z,2.20
2019-05-26T13:55:21.222Z,2.40
2019-05-26T13:57:50.139Z,2.85
2019-05-26T14:00:20.013Z,3.10
2019-05-26T14:02:48.928Z,5.15
2019-05-26T14:05:17.967Z,2.10
2019-05-26T14:07:46.981Z,2.87
2019-05-26T14:10:21.835Z,1.70
2019-05-26T14:12:51.911Z,4.12
2019-05-26T14:15:20.870Z,2.55
2019-05-26T14:17:50.113Z,2.17
2019-05-26T14:20:22.034Z,2.15
2019-05-26T14:22:51.164Z,5.35
2019-05-26T14:25:20.258Z,6.83
2019-05-26T14:27:49.247Z,2.12
2019-05-26T14:30:18.270Z,1.77
2019-05-26T14:32:47.226Z,1.92
2019-05-26T14:35:16.352Z,1.60
2019-05-26T14:37:45.209Z,2.30
2019-05-26T14:40:14.301Z,1.47
2019-05-26T14:42:43.826Z,1.72
2019-05-26T14:45:13.082Z,4.75
2019-05-26T14:47:42.233Z,2.30
2019-05-26T14:50:11.627Z,2.17
2019-05-26T14:52:40.691Z,3.12
2019-05-26T14:55:10.031Z,2.35
2019-05-26T14:57:38.981Z,3.58
2019-05-26T15:00:08.398Z,5.42
2019-05-26T15:02:37.590Z,2.77
2019-05-26T15:05:07.539Z,2.85
2019-05-26T15:07:36.690Z,2.20
2019-05-26T15:10:06.652Z,2.58
2019-05-26T15:12:35.581Z,5.08
2019-05-26T15:15:05.047Z,3.25
2019-05-26T15:17:34.045Z,2.50
2019-05-26T15:20:02.935Z,2.42
2019-05-26T15:22:32.018Z,3.17
2019-05-26T15:25:01.028Z,2.37
2019-05-26T15:27:30.009Z,4.67
2019-05-26T15:30:01.194Z,2.30
2019-05-26T15:32:30.427Z,2.92
2019-05-26T15:34:59.349Z,6.80
2019-05-26T15:37:28.257Z,4.80
2019-05-26T15:39:57.238Z,2.55
2019-05-26T15:42:26.114Z,4.22
2019-05-26T15:44:55.094Z,2.47
2019-05-26T15:47:23.981Z,3.72
2019-05-26T15:49:52.899Z,2.62
2019-05-26T15:52:22.170Z,2.85
2019-05-26T15:54:51.241Z,4.20
2019-05-26T15:57:20.160Z,2.72
2019-05-26T15:59:50.297Z,3.30
2019-05-26T16:02:19.605Z,3.10
2019-05-26T16:04:48.673Z,4.65
2019-05-26T16:07:17.765Z,4.50
2019-05-26T16:09:46.696Z,3.60
2019-05-26T16:12:15.631Z,2.70
2019-05-26T16:14:44.542Z,3.70
2019-05-26T16:17:13.517Z,3.33
2019-05-26T16:19:42.481Z,3.20
2019-05-26T16:22:11.498Z,2.87
2019-05-26T16:24:40.513Z,3.20
2019-05-26T16:27:18.691Z,2.85
2019-05-26T16:29:40.107Z,3.33
2019-05-26T16:32:09.073Z,2.85
2019-05-26T16:34:38.192Z,9.25
2019-05-26T16:37:07.137Z,3.10
2019-05-26T16:39:37.432Z,2.90
2019-05-26T16:42:06.674Z,13.38
2019-05-26T16:44:35.634Z,3.30
2019-05-26T16:47:04.605Z,3.65
2019-05-26T16:49:33.529Z,2.67
2019-05-26T16:52:02.516Z,2.20
2019-05-26T16:54:31.393Z,3.55
2019-05-26T16:57:00.298Z,3.77
2019-05-26T16:59:29.379Z,2.35
2019-05-26T17:01:58.177Z,3.00
2019-05-26T17:04:27.163Z,2.77
2019-05-26T17:06:56.009Z,4.53
2019-05-26T17:09:24.908Z,4.03
2019-05-26T17:11:53.760Z,2.60
2019-05-26T17:14:22.663Z,7.87
2019-05-26T17:16:51.563Z,2.50
2019-05-26T17:19:20.629Z,3.15
2019-05-26T17:21:49.543Z,4.62
2019-05-26T17:24:18.558Z,2.92
2019-05-26T17:26:47.483Z,3.83
2019-05-26T17:29:16.542Z,2.80
2019-05-26T17:31:45.490Z,4.12
2019-05-26T17:34:14.330Z,3.25
2019-05-26T17:36:43.331Z,2.40
2019-05-26T17:39:12.272Z,4.08
2019-05-26T17:41:41.250Z,4.80
2019-05-26T17:44:10.362Z,2.40
2019-05-26T17:46:39.255Z,2.35
2019-05-26T17:49:08.269Z,2.80
2019-05-26T17:51:37.744Z,2.17
2019-05-26T17:54:25.905Z,3.05
2019-05-26T17:56:54.898Z,2.87
2019-05-26T17:59:23.982Z,5.20
2019-05-26T18:01:52.934Z,3.90
2019-05-26T18:04:21.856Z,3.47
2019-05-26T18:06:50.670Z,2.10
2019-05-26T18:09:19.714Z,2.17
2019-05-26T18:11:48.551Z,2.47
2019-05-26T18:14:17.661Z,3.42
2019-05-26T18:16:46.652Z,4.62
2019-05-26T18:19:15.675Z,2.33
2019-05-26T18:21:45.698Z,3.10
2019-05-26T18:24:14.724Z,3.30
2019-05-26T18:26:43.682Z,4.53
2019-05-26T18:29:12.691Z,4.12
2019-05-26T18:31:41.636Z,1.92
2019-05-26T18:34:10.524Z,2.65
2019-05-26T18:36:40.475Z,2.00
2019-05-26T18:39:09.827Z,4.08
2019-05-26T18:41:38.760Z,5.33
2019-05-26T18:44:07.975Z,10.10
2019-05-26T18:46:36.954Z,4.20
2019-05-26T18:49:05.993Z,2.40
2019-05-26T18:51:35.136Z,2.33
2019-05-26T18:54:04.369Z,2.42
2019-05-26T18:56:33.337Z,4.78
2019-05-26T18:59:02.722Z,5.90
2019-05-26T19:01:31.729Z,6.87
2019-05-26T19:04:00.731Z,4.25
2019-05-26T19:06:30.022Z,3.65
2019-05-26T19:08:58.961Z,5.15
2019-05-26T19:11:27.861Z,3.30
2019-05-26T19:13:56.809Z,3.67
2019-05-26T19:16:26.050Z,2.15
2019-05-26T19:18:54.943Z,3.70
2019-05-26T19:21:23.906Z,2.47
2019-05-26T19:23:53.995Z,2.33
2019-05-26T19:26:23.025Z,5.10
2019-05-26T19:28:52.071Z,3.17
2019-05-26T19:31:21.018Z,2.58
2019-05-26T19:33:50.063Z,3.77
2019-05-26T19:36:19.345Z,2.52
2019-05-26T19:38:48.789Z,2.87
2019-05-26T19:41:17.932Z,2.98
2019-05-26T19:43:47.082Z,2.77
2019-05-26T19:46:16.031Z,2.95
2019-05-26T19:48:45.075Z,3.02
2019-05-26T19:51:13.978Z,3.60
2019-05-26T19:53:42.926Z,2.60
2019-05-26T19:56:11.952Z,3.75
2019-05-26T19:58:41.203Z,6.08
2019-05-26T20:01:10.137Z,4.35
2019-05-26T20:03:39.037Z,2.95
2019-05-26T20:06:08.152Z,3.67
2019-05-26T20:08:37.106Z,2.55
2019-05-26T20:11:06.170Z,4.40
2019-05-26T20:13:35.201Z,2.70
2019-05-26T20:16:04.586Z,2.30
2019-05-26T20:18:33.654Z,4.83
2019-05-26T20:21:02.870Z,2.85
2019-05-26T20:23:32.792Z,6.75
2019-05-26T20:26:01.872Z,4.33
2019-05-26T20:28:31.477Z,7.00
2019-05-26T20:31:03.223Z,4.45
2019-05-26T20:33:32.130Z,4.03
2019-05-26T20:36:01.079Z,4.92
2019-05-26T20:38:30.093Z,8.23
2019-05-26T20:40:59.359Z,4.05
2019-05-26T20:43:28.733Z,3.72
2019-05-26T20:45:57.630Z,2.60
2019-05-26T20:48:26.517Z,3.12
2019-05-26T20:50:55.591Z,2.50
2019-05-26T20:53:24.417Z,8.03
2019-05-26T20:55:53.342Z,3.98
2019-05-26T20:58:23.073Z,3.20
2019-05-26T21:00:53.409Z,3.10
2019-05-26T21:03:22.436Z,4.22
2019-05-26T21:05:51.492Z,3.23
2019-05-26T21:08:20.602Z,4.33
2019-05-26T21:10:49.520Z,5.80
2019-05-26T21:13:18.580Z,4.87
2019-05-26T21:15:47.598Z,6.47
2019-05-26T21:18:16.671Z,6.03
2019-05-26T21:20:45.586Z,6.37
2019-05-26T21:23:14.653Z,5.35
2019-05-26T21:25:43.784Z,5.90
2019-05-26T21:28:12.574Z,9.63
2019-05-26T21:30:41.534Z,5.10
2019-05-26T21:33:10.556Z,5.13
2019-05-26T21:35:39.484Z,6.47
2019-05-26T21:38:08.603Z,6.30
2019-05-26T21:40:37.625Z,6.80
2019-05-26T21:43:06.623Z,5.10
2019-05-26T21:45:35.690Z,4.10
2019-05-26T21:48:04.708Z,5.47
2019-05-26T21:50:33.551Z,4.40
2019-05-26T21:53:02.605Z,7.75
2019-05-26T21:55:31.566Z,7.72
2019-05-26T21:58:00.402Z,4.37
2019-05-26T22:00:32.542Z,5.40
2019-05-26T22:03:01.409Z,5.90
2019-05-26T22:05:30.616Z,6.23
2019-05-26T22:07:59.503Z,4.53
2019-05-26T22:10:28.309Z,4.43
2019-05-26T22:12:57.250Z,6.33
2019-05-26T22:15:26.310Z,6.87
2019-05-26T22:17:55.473Z,5.75
2019-05-26T22:20:24.343Z,6.33
2019-05-26T22:22:53.457Z,10.47
2019-05-26T22:25:22.379Z,8.30
2019-05-26T22:27:51.348Z,10.80
2019-05-26T22:30:20.512Z,10.30
2019-05-26T22:32:49.406Z,10.93
2019-05-26T22:35:18.329Z,10.73
2019-05-26T22:37:47.152Z,9.97
2019-05-26T22:40:16.518Z,13.27
2019-05-26T22:42:45.358Z,9.97
2019-05-26T22:45:14.459Z,11.90
2019-05-26T22:47:43.618Z,12.20
2019-05-26T22:50:13.366Z,12.33
2019-05-26T22:52:42.515Z,9.87
2019-05-26T22:55:11.521Z,12.57
2019-05-26T22:57:40.337Z,9.90
2019-05-26T23:00:09.791Z,7.00
2019-05-26T23:02:38.774Z,9.57
2019-05-26T23:05:08.259Z,7.67
2019-05-26T23:07:37.095Z,8.30
2019-05-26T23:10:06.582Z,6.23
2019-05-26T23:12:35.536Z,7.20
2019-05-26T23:15:05.336Z,7.93
2019-05-26T23:17:34.346Z,7.30
2019-05-26T23:20:03.291Z,7.27
2019-05-26T23:22:32.245Z,7.07
2019-05-26T23:25:01.078Z,8.40
2019-05-26T23:27:29.886Z,9.10
2019-05-26T23:29:58.751Z,7.30
2019-05-26T23:32:27.611Z,8.20
2019-05-26T23:34:56.530Z,9.17
2019-05-26T23:37:26.285Z,8.97
2019-05-26T23:39:55.338Z,5.53
2019-05-26T23:42:24.194Z,7.00
2019-05-26T23:44:53.163Z,6.97
2019-05-26T23:47:22.359Z,5.20
2019-05-26T23:49:51.405Z,7.40
2019-05-26T23:52:20.309Z,5.80
2019-05-26T23:54:49.267Z,5.23
2019-05-26T23:57:18.129Z,5.23
2019-05-26T23:59:47.035Z,7.27
